Time;durP1;ratioP1;P1;durP2;ratioP2;P2;SDS_P1;SDS_P2;PMS_P1;PMS_P2;Temp;Humidity;BMP_temperature;BMP_pressure;BME280_temperature;BME280_humidity;BME280_pressure;Samples;Min_cycle;Max_cycle;Signal;HPM_P1;HPM_P2
2022/11/05 00:10:41;;;;;;;6.88;1.55;;;;;;;-142.75;100.00;77660.97;5099720;28;20702;-65
2022/11/05 00:18:36;;;;;;;9.00;1.20;;;;;;;-142.75;100.00;77668.84;5078296;28;20183;-62
2022/11/05 00:21:02;;;;;;;7.72;1.30;;;;;;;-142.75;100.00;77664.91;5078034;28;20469;-66
2022/11/05 00:26:31;;;;;;;6.22;1.67;;;;;;;-142.75;100.00;77678.69;5035096;28;20105;-62
2022/11/05 00:28:57;;;;;;;4.43;1.43;;;;;;;-142.75;100.00;77680.66;5023097;28;20084;-65
2022/11/05 00:31:22;;;;;;;5.82;1.25;;;;;;;-142.75;100.00;77690.50;5037729;28;20281;-65
2022/11/05 00:33:47;;;;;;;6.03;1.25;;;;;;;-142.75;100.00;77700.34;5078212;28;20056;-65
2022/11/05 00:36:13;;;;;;;9.68;1.30;;;;;;;-142.75;100.00;77706.25;5078309;28;20536;-64
2022/11/05 00:38:38;;;;;;;6.95;1.42;;;;;;;-142.75;100.00;77718.06;5081247;28;20019;-65
2022/11/05 00:41:03;;;;;;;3.63;1.27;;;;;;;-142.75;100.00;77723.97;5098391;28;20451;-65
2022/11/05 00:46:12;;;;;;;2.47;1.30;;;;;;;-142.75;100.00;77727.94;5078137;28;20039;-65
2022/11/05 00:51:21;;;;;;;7.18;1.63;;;;;;;-142.75;100.00;77727.94;5078292;28;20046;-65
2022/11/05 00:53:47;;;;;;;3.83;1.52;;;;;;;-142.75;100.00;77722.00;5059819;28;20453;-65
2022/11/05 00:56:12;;;;;;;5.18;1.35;;;;;;;-142.75;100.00;77714.13;5078811;28;20089;-65
2022/11/05 00:58:38;;;;;;;11.15;1.40;;;;;;;-142.75;100.00;77712.16;5079107;28;20035;-65
2022/11/05 01:01:03;;;;;;;4.30;1.40;;;;;;;-142.75;100.00;77714.13;5097255;28;20085;-65
2022/11/05 01:03:34;;;;;;;3.72;0.80;;;;;;;-142.75;100.00;77718.06;5059883;28;20036;-65
2022/11/05 01:06:11;;;;;;;4.93;1.30;;;;;;;-142.75;100.00;77718.06;5059419;28;20020;-65
2022/11/05 01:08:36;;;;;;;;;;;;;;;-142.75;100.00;77712.16;5077597;28;20052;-64
2022/11/05 01:11:09;;;;;;;4.55;1.20;;;;;;;-142.75;100.00;77716.09;5077813;28;20428;-64
2022/11/05 01:13:34;;;;;;;3.35;1.17;;;;;;;-142.75;100.00;77714.13;5078102;28;20078;-65
2022/11/05 01:16:05;;;;;;;6.03;1.40;;;;;;;-142.75;100.00;77712.16;5077405;28;20044;-64
2022/11/05 01:18:31;;;;;;;7.60;2.28;;;;;;;-142.75;100.00;77720.03;5058930;28;20031;-63
2022/11/05 01:20:56;;;;;;;7.72;2.30;;;;;;;-142.75;100.00;77722.00;5077730;28;20040;-65
2022/11/05 01:23:21;;;;;;;3.78;1.42;;;;;;;-142.75;100.00;77723.97;5077589;28;20019;-65
2022/11/05 01:25:47;;;;;;;4.22;1.95;;;;;;;-142.75;100.00;77720.03;5059630;28;20040;-64
2022/11/05 01:28:12;;;;;;;4.50;1.70;;;;;;;-142.75;100.00;77722.00;5067199;28;20387;-65
2022/11/05 01:30:39;;;;;;;5.95;2.00;;;;;;;-142.75;100.00;77722.00;5098118;28;20028;-64
2022/11/05 01:33:04;;;;;;;6.22;1.90;;;;;;;-142.75;100.00;77714.13;5077225;28;20069;-65
2022/11/05 01:35:30;;;;;;;5.28;2.03;;;;;;;-142.75;100.00;77716.09;5076529;28;20024;-65
2022/11/05 01:37:55;;;;;;;7.88;2.33;;;;;;;-142.75;100.00;77718.06;5076381;28;20031;-65
2022/11/05 01:40:22;;;;;;;5.90;2.20;;;;;;;-142.75;100.00;77720.03;5078060;28;20043;-66
2022/11/05 01:42:48;;;;;;;4.18;1.92;;;;;;;-142.75;100.00;77714.13;5085713;28;20400;-65
2022/11/05 01:45:19;;;;;;;4.90;1.67;;;;;;;-142.75;100.00;77708.22;5100660;28;20023;-64
2022/11/05 01:47:47;;;;;;;8.05;2.50;;;;;;;-142.75;100.00;77708.22;5100760;28;20027;-66
2022/11/05 01:50:29;;;;;;;5.53;2.13;;;;;;;-142.75;100.00;77700.34;5101466;28;20028;-66
2022/11/05 01:52:59;;;;;;;4.70;1.70;;;;;;;-142.75;100.00;77727.94;5101597;28;20151;-64
2022/11/05 01:55:29;;;;;;;5.28;2.25;;;;;;;-142.75;100.00;77737.78;5101537;28;20027;-64
2022/11/05 01:57:57;;;;;;;4.93;2.08;;;;;;;-142.75;100.00;77737.78;5100494;28;20027;-65
2022/11/05 02:00:23;;;;;;;3.28;1.70;;;;;;;-142.75;100.00;77755.50;5101498;28;20027;-65
2022/11/05 02:02:48;;;;;;;5.60;1.95;;;;;;;-142.75;100.00;77767.31;5083330;28;20019;-64
2022/11/05 02:05:14;;;;;;;4.63;1.50;;;;;;;-142.75;100.00;77771.25;5101305;28;20028;-65
2022/11/05 02:07:41;;;;;;;;;;;;;;;-142.75;100.00;77779.13;5101032;28;20030;-64
2022/11/05 02:10:08;;;;;;;;;;;;;;;-142.75;100.00;77779.13;5101838;28;20451;-64
2022/11/05 02:12:36;;;;;;;5.65;1.52;;;;;;;-142.75;100.00;77792.91;5101153;28;19963;-63
2022/11/05 02:15:02;;;;;;;4.75;1.42;;;;;;;-142.75;100.00;77794.88;5082484;28;20096;-65
2022/11/05 02:17:37;;;;;;;2.85;1.35;;;;;;;-142.75;100.00;77800.78;5100855;28;20019;-65
2022/11/05 02:20:10;;;;;;;6.00;1.55;;;;;;;-142.75;100.00;77794.88;5082320;28;20020;-64
2022/11/05 02:22:54;;;;;;;8.57;2.25;;;;;;;-142.75;100.00;77808.66;5101145;28;20045;-63
2022/11/05 02:25:40;;;;;;;4.90;1.30;;;;;;;-142.75;100.00;77836.22;5100675;28;20489;-65
2022/11/05 02:28:12;;;;;;;5.93;1.75;;;;;;;-142.75;100.00;77846.06;5058965;28;20337;-65
2022/11/05 02:30:52;;;;;;;4.70;1.60;;;;;;;-142.75;100.00;77853.94;5080840;28;20077;-65
2022/11/05 02:33:29;;;;;;;4.57;1.40;;;;;;;-142.75;100.00;77846.06;5080350;28;20047;-64
2022/11/05 02:36:12;;;;;;;5.40;1.07;;;;;;;-142.75;100.00;77836.22;5080464;28;20103;-65
2022/11/05 02:38:47;;;;;;;5.03;0.97;;;;;;;-142.75;100.00;77842.13;5079897;28;20024;-66
2022/11/05 02:41:33;;;;;;;2.08;0.60;;;;;;;-142.75;100.00;77814.56;5080578;28;20035;-66
2022/11/05 02:44:07;;;;;;;6.57;1.15;;;;;;;-142.75;100.00;77794.88;5079054;28;20151;-63
2022/11/05 02:46:50;;;;;;;2.50;0.80;;;;;;;-142.75;100.00;77788.97;5080243;28;20043;-65
2022/11/05 02:49:26;;;;;;;2.40;0.80;;;;;;;-142.75;100.00;77769.28;5080247;28;20142;-65
2022/11/05 02:51:57;;;;;;;3.85;0.77;;;;;;;-142.75;100.00;77761.41;5080143;28;20027;-65
2022/11/05 02:54:58;;;;;;;1.95;0.98;;;;;;;-142.75;100.00;77751.56;5079903;28;20143;-63
2022/11/05 02:57:23;;;;;;;2.85;1.02;;;;;;;-142.75;100.00;77743.69;5081201;28;20427;-65
2022/11/05 02:59:59;;;;;;;6.95;1.30;;;;;;;-142.75;100.00;77735.81;5100207;28;20024;-63
2022/11/05 03:02:24;;;;;;;3.17;1.02;;;;;;;-142.75;100.00;77741.72;5100694;28;20038;-65
2022/11/05 03:04:50;;;;;;;3.75;0.90;;;;;;;-142.75;100.00;77745.66;5081698;28;20020;-65
2022/11/05 03:07:36;;;;;;;3.25;1.80;;;;;;;-142.75;100.00;77727.94;5099332;28;20498;-64
2022/11/05 03:10:12;;;;;;;5.60;0.98;;;;;;;-142.75;100.00;77731.88;5100340;28;20767;-65
2022/11/05 03:12:46;;;;;;;2.38;0.90;;;;;;;-142.75;100.00;77723.97;5100118;28;20019;-65
2022/11/05 03:15:36;;;;;;;2.90;1.13;;;;;;;-142.75;100.00;77725.97;5081490;28;20028;-65
2022/11/05 03:18:24;;;;;;;1.73;0.82;;;;;;;-142.75;100.00;77731.88;5098977;28;20360;-65
2022/11/05 03:20:59;;;;;;;2.45;0.77;;;;;;;-142.75;100.00;77727.94;5099856;28;20105;-65
2022/11/05 03:23:33;;;;;;;2.83;1.10;;;;;;;-142.75;100.00;77723.97;5099989;28;20034;-65
2022/11/05 03:26:22;;;;;;;3.00;0.98;;;;;;;-142.75;100.00;77723.97;5099362;28;20024;-62
2022/11/05 03:28:54;;;;;;;5.22;1.02;;;;;;;-142.75;100.00;77727.94;5098916;28;20031;-64
2022/11/05 03:31:21;;;;;;;2.10;0.85;;;;;;;-142.75;100.00;77739.75;5081757;28;20023;-66
2022/11/05 03:33:50;;;;;;;2.92;1.08;;;;;;;-142.75;100.00;77733.84;5081412;28;20042;-65
2022/11/05 03:36:25;;;;;;;2.10;0.80;;;;;;;-142.75;100.00;77727.94;5081451;28;20038;-65
2022/11/05 03:38:54;;;;;;;5.03;1.23;;;;;;;-142.75;100.00;77731.88;5099074;28;20023;-65
2022/11/05 03:41:21;;;;;;;1.98;0.70;;;;;;;-142.75;100.00;77729.88;5081594;28;20028;-65
2022/11/05 03:43:51;;;;;;;5.10;0.95;;;;;;;-142.75;100.00;77737.78;5099263;28;20582;-65
2022/11/05 03:46:28;;;;;;;1.75;0.95;;;;;;;-142.75;100.00;77723.97;5080927;28;20024;-65
2022/11/05 03:48:55;;;;;;;5.97;1.33;;;;;;;-142.75;100.00;77725.97;5098814;28;20027;-65
2022/11/05 03:51:42;;;;;;;4.05;1.35;;;;;;;-142.75;100.00;77723.97;5099082;28;20023;-65
2022/11/05 03:54:09;;;;;;;5.28;1.00;;;;;;;-142.75;100.00;77735.81;5099427;28;20019;-65
2022/11/05 03:56:58;;;;;;;4.93;1.15;;;;;;;-142.75;100.00;77731.88;5080435;28;20043;-63
2022/11/05 03:59:24;;;;;;;2.50;1.08;;;;;;;-142.75;100.00;77741.72;5098473;28;20080;-65
2022/11/05 04:01:49;;;;;;;5.50;1.10;;;;;;;-142.75;100.00;77712.16;5081217;28;20072;-64
2022/11/05 04:04:15;;;;;;;1.85;0.90;;;;;;;-142.75;100.00;77712.16;5098193;28;20020;-64
2022/11/05 04:14:55;;;;;;;;;;;;;;;-142.75;100.00;77704.28;5098928;28;20043;-65
2022/11/05 04:17:21;;;;;;;5.45;1.08;;;;;;;-142.75;100.00;77716.09;5079128;28;19954;-64
2022/11/05 04:25:19;;;;;;;5.78;1.42;;;;;;;-142.75;100.00;77722.00;5077851;28;20070;-65
2022/11/05 04:27:45;;;;;;;3.88;1.00;;;;;;;-142.75;100.00;77733.84;5076837;28;20028;-65
2022/11/05 04:30:17;;;;;;;;;;;;;;;-142.75;100.00;77739.75;5060078;28;20023;-65
2022/11/05 04:33:03;;;;;;;2.83;0.95;;;;;;;-142.75;100.00;77739.75;5078174;28;20771;-63
2022/11/05 04:35:31;;;;;;;4.90;1.10;;;;;;;-142.75;100.00;77737.78;5077908;28;20062;-65
2022/11/05 04:37:57;;;;;;;4.80;1.10;;;;;;;-142.75;100.00;77741.72;5058665;28;20027;-65
2022/11/05 04:40:23;;;;;;;3.38;1.10;;;;;;;-142.75;100.00;77739.75;5058786;28;20028;-65
2022/11/05 04:42:48;;;;;;;1.70;0.90;;;;;;;-142.75;100.00;77747.63;5059449;28;20028;-65
2022/11/05 04:45:14;;;;;;;2.50;1.02;;;;;;;-142.75;100.00;77747.63;5077149;28;20081;-65
2022/11/05 04:47:39;;;;;;;3.88;0.85;;;;;;;-142.75;100.00;77755.50;5058486;28;20077;-63
2022/11/05 04:50:04;;;;;;;1.65;0.75;;;;;;;-142.75;100.00;77751.56;5077156;28;20022;-63
2022/11/05 04:52:30;;;;;;;5.00;0.70;;;;;;;-142.75;100.00;77751.56;5077532;28;20029;-65
2022/11/05 04:54:55;;;;;;;1.38;0.60;;;;;;;-142.75;100.00;77767.31;5077360;28;20119;-65
2022/11/05 04:57:21;;;;;;;2.67;0.82;;;;;;;-142.75;100.00;77773.22;5076573;28;20026;-65
2022/11/05 04:59:50;;;;;;;3.70;0.68;;;;;;;-142.75;100.00;77771.25;5077246;28;20027;-65
2022/11/05 05:02:16;;;;;;;1.92;0.60;;;;;;;-142.75;100.00;77779.13;5077377;28;20550;-65
2022/11/05 05:04:41;;;;;;;1.85;0.80;;;;;;;-142.75;100.00;77783.06;5077652;28;20066;-65
2022/11/05 05:07:06;;;;;;;3.75;0.63;;;;;;;-142.75;100.00;77787.00;5076030;28;20024;-64
2022/11/05 05:09:32;;;;;;;3.40;1.10;;;;;;;-142.75;100.00;77792.91;5077226;28;20628;-63
2022/11/05 05:11:57;;;;;;;2.67;0.60;;;;;;;-142.75;100.00;77781.09;5077305;28;20028;-65
2022/11/05 05:14:22;;;;;;;1.67;0.60;;;;;;;-142.75;100.00;77779.13;5077485;28;20082;-65
2022/11/05 05:16:47;;;;;;;2.25;0.73;;;;;;;-142.75;100.00;77779.13;5076332;28;20024;-65
2022/11/05 05:19:13;;;;;;;2.27;0.70;;;;;;;-142.75;100.00;77790.94;5059578;28;20021;-65
2022/11/05 05:21:38;;;;;;;3.92;0.80;;;;;;;-142.75;100.00;77788.97;5081434;28;20786;-65
2022/11/05 05:24:23;;;;;;;1.95;0.57;;;;;;;-142.75;100.00;77790.94;5080384;28;20059;-63
2022/11/05 05:26:49;;;;;;;5.13;0.85;;;;;;;-142.75;100.00;77790.94;5080096;28;20055;-65
2022/11/05 05:29:15;;;;;;;;;;;;;;;-142.75;100.00;77798.81;5063371;28;20035;-65
2022/11/05 05:31:41;;;;;;;1.75;0.82;;;;;;;-142.75;100.00;77798.81;5063171;28;19912;-65
2022/11/05 05:34:10;;;;;;;4.72;1.52;;;;;;;-142.75;100.00;77790.94;5081055;28;20019;-65
2022/11/05 05:36:36;;;;;;;4.57;2.00;;;;;;;-142.75;100.00;77794.88;5080592;28;20035;-65
2022/11/05 05:39:05;;;;;;;5.38;1.88;;;;;;;-142.75;100.00;77798.81;5080823;28;20031;-65
2022/11/05 05:41:30;;;;;;;5.88;1.85;;;;;;;-142.75;100.00;77800.78;5081488;28;20020;-64
2022/11/05 05:43:55;;;;;;;6.72;1.85;;;;;;;-142.75;100.00;77802.75;5080636;28;20074;-65
2022/11/05 05:46:21;;;;;;;8.15;2.30;;;;;;;-142.75;100.00;77804.72;5062585;28;20090;-65
2022/11/05 05:48:50;;;;;;;5.05;1.80;;;;;;;-142.75;100.00;77806.69;5060973;28;20496;-65
2022/11/05 05:51:16;;;;;;;3.58;1.80;;;;;;;-142.75;100.00;77810.63;5080824;28;20024;-66
2022/11/05 05:53:42;;;;;;;;;;;;;;;-142.75;100.00;77804.72;5080591;28;20040;-66
2022/11/05 05:56:07;;;;;;;4.20;1.48;;;;;;;-142.75;100.00;77806.69;5062025;28;19912;-66
2022/11/05 05:58:37;;;;;;;2.67;1.30;;;;;;;-142.75;100.00;77802.75;5079543;28;20027;-65
2022/11/05 06:01:06;;;;;;;3.80;1.63;;;;;;;-142.75;100.00;77814.56;5061258;28;20059;-64
2022/11/05 06:06:13;;;;;;;7.25;2.78;;;;;;;-142.75;100.00;77842.13;5102799;27;20040;-67
2022/11/05 06:08:39;;;;;;;3.30;2.20;;;;;;;-142.75;100.00;77846.06;5101189;28;20473;-68
2022/11/05 06:11:05;;;;;;;6.97;2.85;;;;;;;-142.75;100.00;77842.13;5100526;28;20027;-68
2022/11/05 06:13:30;;;;;;;5.15;3.00;;;;;;;-142.75;100.00;77850.00;5100436;28;20046;-69
2022/11/05 06:16:01;;;;;;;7.78;3.25;;;;;;;-142.75;100.00;77865.75;5081575;28;20030;-68
2022/11/05 06:18:27;;;;;;;10.30;3.60;;;;;;;-142.75;100.00;77861.81;5080905;28;20409;-67
2022/11/05 06:20:54;;;;;;;6.47;3.78;;;;;;;-142.75;100.00;77861.81;5099822;28;20077;-69
2022/11/05 06:23:20;;;;;;;8.80;3.60;;;;;;;-142.75;100.00;77867.72;5081815;28;20034;-69
2022/11/05 06:25:45;;;;;;;5.75;3.53;;;;;;;-142.75;100.00;77857.88;5099699;28;20666;-67
2022/11/05 06:28:11;;;;;;;8.88;3.90;;;;;;;-142.75;100.00;77853.94;5098855;28;20042;-68
2022/11/05 06:30:36;;;;;;;10.57;3.80;;;;;;;-142.75;100.00;77848.03;5099406;28;20082;-67
2022/11/05 06:33:04;;;;;;;6.13;3.87;;;;;;;-142.75;100.00;77857.88;5099921;28;20490;-67
2022/11/05 06:35:31;;;;;;;6.82;3.58;;;;;;;-142.75;100.00;77855.91;5100398;28;20269;-68
2022/11/05 06:38:02;;;;;;;6.82;4.13;;;;;;;-142.75;100.00;77861.81;5099276;28;20386;-67
2022/11/05 06:40:28;;;;;;;8.38;4.82;;;;;;;-142.75;100.00;77855.91;5083354;28;20023;-67
2022/11/05 06:42:54;;;;;;;13.45;4.35;;;;;;;-142.75;100.00;77863.78;5082660;28;20019;-68
2022/11/05 06:45:19;;;;;;;9.07;3.95;;;;;;;-142.75;100.00;77867.72;5100664;28;20108;-68
2022/11/05 06:47:45;;;;;;;12.20;4.38;;;;;;;-142.75;100.00;77873.63;5099922;28;20035;-69
2022/11/05 06:50:10;;;;;;;11.93;5.30;;;;;;;-142.75;100.00;77865.75;5081941;28;20147;-68
2022/11/05 06:52:35;;;;;;;9.27;4.80;;;;;;;-142.75;100.00;77871.66;5100568;28;20357;-68
2022/11/05 06:55:01;;;;;;;9.30;4.47;;;;;;;-142.75;100.00;77869.69;5100029;28;20770;-67
2022/11/05 06:57:26;;;;;;;12.18;5.00;;;;;;;-142.75;100.00;77861.81;5099828;28;20089;-70
2022/11/05 06:59:51;;;;;;;9.55;4.45;;;;;;;-142.75;100.00;77861.81;5082132;28;20015;-69
2022/11/05 07:02:17;;;;;;;10.55;4.32;;;;;;;-142.75;100.00;77859.84;5100274;28;20477;-68
2022/11/05 07:04:42;;;;;;;13.93;4.97;;;;;;;-142.75;100.00;77834.25;5100313;28;20028;-68
2022/11/05 07:07:08;;;;;;;9.75;4.32;;;;;;;-142.75;100.00;77818.50;5099670;28;20487;-68
2022/11/05 07:09:37;;;;;;;7.75;4.88;;;;;;;-142.75;100.00;77800.78;5082130;28;20142;-69
2022/11/05 07:12:03;;;;;;;14.68;5.13;;;;;;;-142.75;100.00;77798.81;5099102;28;20023;-68
2022/11/05 07:14:28;;;;;;;12.00;5.03;;;;;;;-142.75;100.00;77781.09;5100827;28;20752;-67
2022/11/05 07:16:55;;;;;;;9.18;4.55;;;;;;;-142.75;100.00;77777.16;5099420;28;20038;-70
2022/11/05 07:19:21;;;;;;;14.18;4.97;;;;;;;-142.75;100.00;77759.44;5082498;28;20016;-70
2022/11/05 07:21:47;;;;;;;13.33;4.53;;;;;;;-142.75;100.00;77739.75;5100609;28;20402;-70
2022/11/05 07:24:14;;;;;;;8.30;4.65;;;;;;;-142.75;100.00;77706.25;5100453;28;20318;-69
2022/11/05 07:26:39;;;;;;;8.23;4.15;;;;;;;-142.75;100.00;77674.75;5081877;28;20015;-69
2022/11/05 07:29:04;;;;;;;10.07;4.60;;;;;;;-142.75;100.00;77641.28;5099653;28;20031;-70
2022/11/05 07:31:29;;;;;;;8.05;4.10;;;;;;;-142.75;100.00;77603.88;5100601;28;20496;-69
2022/11/05 07:33:55;;;;;;;10.52;4.45;;;;;;;-142.75;100.00;77580.25;5100787;28;20019;-69
2022/11/05 07:36:20;;;;;;;15.50;4.35;;;;;;;-142.75;100.00;77538.91;5100529;28;20019;-69
2022/11/05 07:38:45;;;;;;;5.55;3.63;;;;;;;-142.75;100.00;77531.03;5099154;28;20028;-68
2022/11/05 07:41:11;;;;;;;5.22;3.45;;;;;;;-142.75;100.00;77523.16;5081001;28;20575;-68
2022/11/05 07:43:36;;;;;;;6.60;3.93;;;;;;;-142.75;100.00;77507.41;5100140;28;20155;-68
2022/11/05 07:46:01;;;;;;;8.95;3.55;;;;;;;-142.75;100.00;77546.78;5098867;28;20284;-68
2022/11/05 07:48:26;;;;;;;10.27;3.60;;;;;;;-142.75;100.00;77550.72;5098955;28;20028;-68
2022/11/05 07:50:52;;;;;;;6.93;3.72;;;;;;;-142.75;100.00;77558.59;5099079;28;20031;-70
2022/11/05 07:53:19;;;;;;;7.93;3.20;;;;;;;-142.75;100.00;77564.50;5100049;28;20027;-68
2022/11/05 07:55:45;;;;;;;8.55;3.40;;;;;;;-142.75;100.00;77531.03;5099477;28;20564;-67
2022/11/05 07:58:10;;;;;;;8.45;2.90;;;;;;;-142.75;100.00;77499.53;5099178;28;20011;-70
2022/11/05 08:00:36;;;;;;;10.40;3.55;;;;;;;-142.75;100.00;77464.09;5099900;28;20023;-69
2022/11/05 08:03:11;;;;;;;5.70;3.20;;;;;;;-142.75;100.00;77458.16;5099593;28;20581;-69
2022/11/05 08:05:39;;;;;;;6.55;3.05;;;;;;;-142.75;100.00;77515.28;5099628;28;20036;-68
2022/11/05 08:08:06;;;;;;;5.07;2.95;;;;;;;-142.75;100.00;77527.09;5098062;28;20033;-68
2022/11/05 08:10:32;;;;;;;9.05;3.63;;;;;;;-142.75;100.00;77560.56;5099182;28;20027;-68
2022/11/05 08:12:58;;;;;;;;;;;;;;;-142.75;100.00;77574.34;5099234;28;20098;-65
2022/11/05 08:15:23;;;;;;;8.48;3.40;;;;;;;-142.75;100.00;77603.88;5099267;28;19911;-66
2022/11/05 08:17:49;;;;;;;9.70;3.42;;;;;;;-142.75;100.00;77601.91;5098807;28;20039;-69
2022/11/05 08:20:15;;;;;;;5.47;2.60;;;;;;;-142.75;100.00;77609.78;5099171;28;20842;-70
2022/11/05 08:22:42;;;;;;;6.88;3.50;;;;;;;-142.75;100.00;77631.44;5100165;28;20023;-70
2022/11/05 08:25:07;;;;;;;6.63;3.65;;;;;;;-142.75;100.00;77625.53;5099235;28;20027;-70
2022/11/05 08:27:33;;;;;;;6.40;3.00;;;;;;;-142.75;100.00;77629.47;5097973;28;20070;-68
2022/11/05 08:29:59;;;;;;;5.30;2.60;;;;;;;-142.75;100.00;77621.59;5094420;28;20499;-68
2022/11/05 08:32:24;;;;;;;10.33;3.27;;;;;;;-142.75;100.00;77607.81;5097644;28;20027;-68
2022/11/05 08:34:50;;;;;;;9.38;2.78;;;;;;;-142.75;100.00;77609.78;5097167;28;20273;-69
2022/11/05 08:37:15;;;;;;;7.20;2.73;;;;;;;-142.75;100.00;77613.72;5096682;28;20023;-70
2022/11/05 08:39:40;;;;;;;5.67;2.77;;;;;;;-142.75;100.00;77596.00;5097609;28;20333;-68
2022/11/05 08:42:05;;;;;;;7.85;2.35;;;;;;;-142.75;100.00;77590.09;5096744;28;20626;-68
2022/11/05 08:44:31;;;;;;;5.53;2.20;;;;;;;-142.75;100.00;77584.19;5079078;28;20532;-68
2022/11/05 08:46:57;;;;;;;4.28;2.35;;;;;;;-142.75;100.00;77588.13;5096058;28;20023;-68
2022/11/05 08:49:23;;;;;;;9.45;2.38;;;;;;;-142.75;100.00;77582.22;5097326;28;20031;-68
2022/11/05 08:51:48;;;;;;;5.93;2.20;;;;;;;-142.75;100.00;77574.34;5096882;28;20871;-69
2022/11/05 08:54:13;;;;;;;5.10;2.00;;;;;;;-142.75;100.00;77550.72;5096937;28;20023;-67
2022/11/05 08:56:39;;;;;;;6.80;1.92;;;;;;;-142.75;100.00;77538.91;5078437;28;20026;-67
2022/11/05 08:59:04;;;;;;;9.60;2.08;;;;;;;-142.75;100.00;77515.28;5096463;28;20122;-68
2022/11/05 09:01:31;;;;;;;5.72;2.05;;;;;;;-142.75;100.00;77477.88;5096896;28;20023;-69
2022/11/05 09:03:57;;;;;;;5.57;1.90;;;;;;;-142.75;100.00;77454.25;5096558;28;20130;-68
2022/11/05 09:06:22;;;;;;;4.22;2.03;;;;;;;-142.75;100.00;77444.38;5096938;28;20019;-70
2022/11/05 09:08:47;;;;;;;5.85;2.25;;;;;;;-142.75;100.00;77422.72;5077897;28;20030;-68
2022/11/05 09:11:13;;;;;;;9.00;2.13;;;;;;;-142.75;100.00;77412.88;5096385;28;20039;-68
2022/11/05 09:13:39;;;;;;;6.07;2.08;;;;;;;-142.75;100.00;77397.13;5096966;28;20106;-66
2022/11/05 09:16:04;;;;;;;8.25;1.75;;;;;;;-142.75;100.00;77399.09;5096294;28;20082;-68
2022/11/05 09:18:30;;;;;;;7.70;1.90;;;;;;;-142.75;100.00;77405.00;5096066;28;20863;-68
2022/11/05 09:20:55;;;;;;;;;;;;;;;-142.75;100.00;77401.06;5097189;28;20027;-68
2022/11/05 09:23:20;;;;;;;5.65;1.70;;;;;;;-142.75;100.00;77420.75;5096280;28;19915;-69
2022/11/05 09:25:45;;;;;;;3.30;1.48;;;;;;;-142.75;100.00;77416.81;5096792;28;20096;-69
2022/11/05 09:28:14;;;;;;;5.78;1.80;;;;;;;-142.75;100.00;77401.06;5096081;28;20621;-68
2022/11/05 09:30:41;;;;;;;5.88;1.75;;;;;;;-142.75;100.00;77405.00;5096615;28;20126;-68
2022/11/05 09:33:07;;;;;;;5.00;1.90;;;;;;;-142.75;100.00;77406.97;5096773;28;20038;-68
2022/11/05 09:35:32;;;;;;;5.88;2.30;;;;;;;-142.75;100.00;77399.09;5078543;28;20024;-68
2022/11/05 09:37:57;;;;;;;5.18;2.05;;;;;;;-142.75;100.00;77403.03;5095447;28;20026;-66
2022/11/05 09:40:24;;;;;;;9.13;1.75;;;;;;;-142.75;100.00;77401.06;5096572;28;20024;-68
2022/11/05 09:42:53;;;;;;;3.28;1.42;;;;;;;-142.75;100.00;77412.88;5096133;28;20031;-68
2022/11/05 09:45:21;;;;;;;4.47;1.77;;;;;;;-142.75;100.00;77408.94;5096218;28;20030;-68
2022/11/05 09:47:50;;;;;;;6.97;1.85;;;;;;;-142.75;100.00;77424.69;5095284;28;20463;-69
2022/11/05 09:50:29;;;;;;;5.20;1.90;;;;;;;-142.75;100.00;77422.72;5096291;28;20575;-69
2022/11/05 09:52:54;;;;;;;6.07;1.90;;;;;;;-142.75;100.00;77428.63;5096133;28;20749;-68
2022/11/05 09:55:25;;;;;;;7.90;1.60;;;;;;;-142.75;100.00;77444.38;5096429;28;20031;-68
2022/11/05 09:57:59;;;;;;;5.90;2.30;;;;;;;-142.75;100.00;77444.38;5095777;28;20035;-69
2022/11/05 10:00:25;;;;;;;4.45;2.00;;;;;;;-142.75;100.00;77434.53;5096630;28;20031;-68
2022/11/05 10:02:58;;;;;;;6.20;1.73;;;;;;;-142.75;100.00;77424.69;5096730;28;20040;-69
2022/11/05 10:05:26;;;;;;;5.80;2.13;;;;;;;-142.75;100.00;77420.75;5097699;28;20035;-68
2022/11/05 10:08:01;;;;;;;5.43;2.28;;;;;;;-142.75;100.00;77422.72;5081355;28;20038;-70
2022/11/05 10:10:43;;;;;;;5.50;1.92;;;;;;;-142.75;100.00;77426.66;5082019;28;20591;-69
2022/11/05 10:13:31;;;;;;;5.38;2.28;;;;;;;-142.75;100.00;77424.69;5099907;28;20023;-67
2022/11/05 10:15:58;;;;;;;;;;;;;;;-142.75;100.00;77430.59;5100405;28;20153;-68
2022/11/05 10:18:31;;;;;;;5.88;2.20;;;;;;;-142.75;100.00;77428.63;5099519;28;19919;-67
2022/11/05 10:20:57;;;;;;;3.60;1.95;;;;;;;-142.75;100.00;77440.44;5100072;28;20628;-69
2022/11/05 10:23:24;;;;;;;6.90;2.22;;;;;;;-142.75;100.00;77442.41;5101389;28;20027;-70
2022/11/05 10:25:54;;;;;;;11.40;2.15;;;;;;;-142.75;100.00;77456.22;5101663;28;20028;-69
2022/11/05 10:28:23;;;;;;;6.90;2.40;;;;;;;-142.75;100.00;77436.50;5082851;28;20016;-68
2022/11/05 10:30:55;;;;;;;5.93;2.55;;;;;;;-142.75;100.00;77428.63;5102200;28;20395;-69
2022/11/05 10:33:38;;;;;;;6.30;2.17;;;;;;;-142.75;100.00;77436.50;5102194;28;20028;-68
2022/11/05 10:36:06;;;;;;;5.10;1.83;;;;;;;-142.75;100.00;77420.75;5101952;28;20026;-69
2022/11/05 10:38:32;;;;;;;7.40;2.55;;;;;;;-142.75;100.00;77405.00;5083209;28;20346;-68
2022/11/05 10:41:09;;;;;;;5.60;2.30;;;;;;;-142.75;100.00;77326.25;5101682;28;20034;-68
2022/11/05 10:43:46;;;;;;;4.45;2.50;;;;;;;-142.75;100.00;77255.38;5102851;28;21050;-68
2022/11/05 10:46:24;;;;;;;4.80;2.13;;;;;;;-142.75;100.00;77227.81;5101920;28;20469;-70
2022/11/05 10:49:08;;;;;;;6.53;2.22;;;;;;;-142.75;100.00;77245.53;5100758;28;20023;-69
2022/11/05 10:51:34;;;;;;;6.68;2.28;;;;;;;-142.75;100.00;77235.69;5102419;28;20024;-68
2022/11/05 10:54:17;;;;;;;5.88;2.40;;;;;;;-142.75;100.00;77245.53;5101289;28;20047;-67
2022/11/05 10:56:43;;;;;;;8.82;2.92;;;;;;;-142.75;100.00;77194.34;5101115;28;20449;-68
2022/11/05 10:59:26;;;;;;;6.75;2.17;;;;;;;-142.75;100.00;77164.81;5101579;28;20030;-68
2022/11/05 11:02:15;;;;;;;9.13;2.03;;;;;;;-142.75;100.00;77099.84;5101649;28;20023;-68
2022/11/05 11:04:40;;;;;;;5.22;1.95;;;;;;;-142.75;100.00;77082.13;5101617;28;20054;-69
2022/11/05 11:07:20;;;;;;;8.32;1.88;;;;;;;-142.75;100.00;77084.09;5100131;28;20465;-68
2022/11/05 11:09:48;;;;;;;7.25;1.92;;;;;;;-142.75;100.00;77139.22;5099875;28;20552;-69
2022/11/05 11:12:26;;;;;;;5.90;1.75;;;;;;;-142.75;100.00;77172.69;5080835;28;20031;-69
2022/11/05 11:15:11;;;;;;;3.80;1.55;;;;;;;-142.75;100.00;77164.81;5099555;28;20051;-68
2022/11/05 11:17:36;;;;;;;5.10;1.73;;;;;;;-142.75;100.00;77198.28;5097830;28;20041;-68
2022/11/05 11:20:18;;;;;;;4.93;1.98;;;;;;;-142.75;100.00;77235.69;5099706;28;20028;-68
2022/11/05 11:23:15;;;;;;;5.38;2.00;;;;;;;-142.75;100.00;77253.41;5100539;28;20558;-67
2022/11/05 11:25:56;;;;;;;5.35;1.92;;;;;;;-142.75;100.00;77231.75;5097541;28;20430;-68
2022/11/05 11:28:28;;;;;;;4.25;1.98;;;;;;;-142.75;100.00;77212.06;5099878;28;20031;-68
2022/11/05 11:31:04;;;;;;;4.20;1.85;;;;;;;-142.75;100.00;77184.50;5100383;28;20057;-67
2022/11/05 11:33:31;;;;;;;3.33;1.85;;;;;;;-142.75;100.00;77231.75;5100668;28;20019;-67
2022/11/05 11:35:57;;;;;;;4.10;1.70;;;;;;;-142.75;100.00;77198.28;5100254;28;20712;-69
2022/11/05 11:38:23;;;;;;;4.55;2.15;;;;;;;-142.75;100.00;77182.53;5100031;28;20147;-68
2022/11/05 11:40:50;;;;;;;6.55;2.38;;;;;;;-142.75;100.00;77200.25;5100125;28;20023;-69
2022/11/05 11:43:32;;;;;;;7.97;2.35;;;;;;;-142.75;100.00;77176.63;5100402;28;20024;-67
2022/11/05 11:45:57;;;;;;;8.38;2.17;;;;;;;-142.75;100.00;77174.66;5099891;28;20062;-71
2022/11/05 11:48:30;;;;;;;8.40;1.65;;;;;;;-142.75;100.00;77141.19;5099866;28;20095;-68
2022/11/05 11:50:57;;;;;;;5.13;2.10;;;;;;;-142.75;100.00;77186.47;5099878;28;20027;-69
2022/11/05 11:53:22;;;;;;;3.60;1.52;;;;;;;-142.75;100.00;77154.97;5081772;28;20027;-69
2022/11/05 11:55:53;;;;;;;7.20;2.63;;;;;;;-142.75;100.00;77160.88;5099788;28;20030;-68
2022/11/05 11:58:18;;;;;;;6.75;1.80;;;;;;;-142.75;100.00;77216.00;5098912;28;20354;-70
2022/11/05 12:00:48;;;;;;;6.97;1.98;;;;;;;-142.75;100.00;77239.63;5099879;28;20033;-68